createdAt,value
2018-10-06T00:01:47.149Z,3.87
2018-10-06T00:04:14.970Z,3.13
2018-10-06T00:06:42.837Z,4.20
2018-10-06T00:09:10.637Z,4.37
2018-10-06T00:11:38.457Z,3.40
2018-10-06T00:14:06.330Z,4.30
2018-10-06T00:16:34.143Z,4.57
2018-10-06T00:19:01.974Z,6.00
2018-10-06T00:21:29.842Z,5.30
2018-10-06T00:23:57.683Z,6.10
2018-10-06T00:26:25.544Z,7.40
2018-10-06T00:28:53.414Z,6.87
2018-10-06T00:31:21.260Z,7.67
2018-10-06T00:33:49.079Z,7.10
2018-10-06T00:36:16.993Z,6.40
2018-10-06T00:38:44.774Z,5.93
2018-10-06T00:41:12.554Z,6.60
2018-10-06T00:43:40.397Z,6.87
2018-10-06T00:46:08.477Z,5.80
2018-10-06T00:48:36.263Z,6.80
2018-10-06T00:51:04.093Z,5.67
2018-10-06T00:53:31.893Z,6.57
2018-10-06T00:55:59.672Z,6.00
2018-10-06T00:58:27.498Z,7.90
2018-10-06T01:00:55.281Z,7.60
2018-10-06T01:03:23.066Z,6.87
2018-10-06T01:05:50.910Z,9.83
2018-10-06T01:08:18.682Z,8.10
2018-10-06T01:10:46.475Z,7.17
2018-10-06T01:13:14.309Z,6.77
2018-10-06T01:15:42.109Z,6.73
2018-10-06T01:18:09.900Z,7.13
2018-10-06T01:20:37.787Z,7.10
2018-10-06T01:23:05.579Z,6.83
2018-10-06T01:25:33.370Z,8.30
2018-10-06T01:28:02.531Z,8.05
2018-10-06T01:30:30.334Z,8.07
2018-10-06T01:32:58.042Z,7.20
2018-10-06T01:35:25.854Z,7.57
2018-10-06T01:37:53.673Z,9.87
2018-10-06T01:40:21.474Z,8.00
2018-10-06T01:42:49.319Z,8.33
2018-10-06T01:45:17.126Z,8.57
2018-10-06T01:47:44.934Z,10.27
2018-10-06T01:50:12.758Z,7.23
2018-10-06T01:52:40.554Z,8.97
2018-10-06T01:55:08.359Z,7.70
2018-10-06T01:57:36.193Z,9.33
2018-10-06T02:00:03.993Z,5.10
2018-10-06T02:02:31.802Z,13.23
2018-10-06T02:04:59.660Z,5.10
2018-10-06T02:07:27.445Z,6.27
2018-10-06T02:09:55.208Z,5.83
2018-10-06T02:12:22.943Z,5.53
2018-10-06T02:14:50.694Z,7.33
2018-10-06T02:17:18.384Z,5.63
2018-10-06T02:19:46.094Z,5.27
2018-10-06T02:22:13.838Z,5.10
2018-10-06T02:24:41.603Z,7.73
2018-10-06T02:27:09.405Z,6.70
2018-10-06T02:29:37.073Z,4.30
2018-10-06T02:32:05.123Z,4.77
2018-10-06T02:34:32.850Z,6.77
2018-10-06T02:37:00.654Z,4.93
2018-10-06T02:39:28.339Z,5.67
2018-10-06T02:41:56.127Z,6.67
2018-10-06T02:44:23.919Z,8.33
2018-10-06T02:46:51.685Z,7.77
2018-10-06T02:49:19.389Z,5.67
2018-10-06T02:51:47.072Z,6.90
2018-10-06T02:54:14.828Z,6.97
2018-10-06T02:56:42.602Z,6.53
2018-10-06T02:59:10.378Z,5.60
2018-10-06T03:01:38.132Z,7.77
2018-10-06T03:04:06.075Z,6.83
2018-10-06T03:06:33.808Z,5.90
2018-10-06T03:09:01.536Z,7.87
2018-10-06T03:11:29.294Z,7.27
2018-10-06T03:13:57.026Z,7.70
2018-10-06T03:16:25.052Z,7.20
2018-10-06T03:18:52.782Z,6.20
2018-10-06T03:21:20.934Z,5.63
2018-10-06T03:23:48.676Z,4.10
2018-10-06T03:26:16.417Z,5.00
2018-10-06T03:28:44.097Z,6.60
2018-10-06T03:31:11.807Z,5.67
2018-10-06T03:33:39.510Z,4.60
2018-10-06T03:36:07.289Z,5.30
2018-10-06T03:38:35.046Z,5.67
2018-10-06T03:41:02.834Z,7.93
2018-10-06T03:43:30.560Z,3.93
2018-10-06T03:45:58.326Z,3.40
2018-10-06T03:48:26.119Z,4.63
2018-10-06T03:50:53.870Z,4.10
2018-10-06T03:53:21.597Z,4.27
2018-10-06T03:55:49.690Z,5.73
2018-10-06T03:58:17.402Z,4.07
2018-10-06T04:00:45.085Z,12.47
2018-10-06T04:03:12.911Z,9.27
2018-10-06T04:05:40.762Z,5.07
2018-10-06T04:08:08.498Z,4.87
2018-10-06T04:10:36.309Z,6.93
2018-10-06T04:13:04.085Z,4.93
2018-10-06T04:15:31.881Z,7.60
2018-10-06T04:17:59.645Z,7.30
2018-10-06T04:20:27.474Z,5.80
2018-10-06T04:22:55.205Z,4.20
2018-10-06T04:25:23.010Z,4.57
2018-10-06T04:27:50.768Z,4.43
2018-10-06T04:30:18.545Z,5.47
2018-10-06T04:32:46.395Z,4.83
2018-10-06T04:35:14.139Z,6.47
2018-10-06T04:37:41.869Z,4.80
2018-10-06T04:40:09.636Z,4.30
2018-10-06T04:42:37.406Z,5.07
2018-10-06T04:45:05.198Z,6.03
2018-10-06T04:47:33.233Z,6.17
2018-10-06T04:50:00.954Z,6.50
2018-10-06T04:52:28.682Z,7.50
2018-10-06T04:54:56.453Z,5.30
2018-10-06T04:57:24.108Z,4.90
2018-10-06T04:59:51.841Z,6.57
2018-10-06T05:02:19.598Z,5.77
2018-10-06T05:04:47.301Z,4.93
2018-10-06T05:07:15.082Z,4.57
2018-10-06T05:09:42.861Z,6.93
2018-10-06T05:12:10.549Z,4.43
2018-10-06T05:14:38.317Z,5.17
2018-10-06T05:17:06.044Z,5.20
2018-10-06T05:19:33.732Z,6.07
2018-10-06T05:22:01.459Z,3.87
2018-10-06T05:24:29.266Z,5.90
2018-10-06T05:26:56.938Z,3.47
2018-10-06T05:29:24.703Z,4.97
2018-10-06T05:31:52.470Z,5.23
2018-10-06T05:34:20.405Z,3.13
2018-10-06T05:36:48.269Z,4.30
2018-10-06T05:39:16.053Z,3.53
2018-10-06T05:41:43.750Z,3.33
2018-10-06T05:44:11.513Z,3.73
2018-10-06T05:46:39.278Z,5.43
2018-10-06T05:49:06.973Z,6.40
2018-10-06T05:51:34.669Z,9.40
2018-10-06T05:54:02.510Z,5.13
2018-10-06T05:56:30.205Z,5.17
2018-10-06T05:58:57.895Z,3.47
2018-10-06T06:01:25.730Z,5.57
2018-10-06T06:03:53.451Z,4.90
2018-10-06T06:06:21.202Z,4.93
2018-10-06T06:08:49.008Z,6.13
2018-10-06T06:11:16.734Z,3.40
2018-10-06T06:13:44.457Z,4.37
2018-10-06T06:16:12.231Z,3.90
2018-10-06T06:18:39.901Z,4.30
2018-10-06T06:21:07.658Z,4.57
2018-10-06T06:23:35.474Z,3.10
2018-10-06T06:26:03.207Z,3.60
2018-10-06T06:28:30.901Z,2.93
2018-10-06T06:30:58.667Z,4.63
2018-10-06T06:33:26.401Z,4.17
2018-10-06T06:35:54.146Z,3.50
2018-10-06T06:38:21.950Z,4.13
2018-10-06T06:40:49.694Z,3.37
2018-10-06T06:43:17.487Z,5.90
2018-10-06T06:45:45.267Z,8.27
2018-10-06T06:48:12.937Z,4.40
2018-10-06T06:50:40.663Z,6.60
2018-10-06T06:53:08.453Z,7.03
2018-10-06T06:55:36.181Z,3.20
2018-10-06T06:58:03.920Z,4.33
2018-10-06T07:00:31.697Z,4.57
2018-10-06T07:05:35.819Z,4.23
2018-10-06T07:08:03.605Z,7.63
2018-10-06T07:10:31.360Z,2.90
2018-10-06T07:12:59.171Z,5.73
2018-10-06T07:15:26.935Z,3.37
2018-10-06T07:17:54.649Z,5.13
2018-10-06T07:20:22.436Z,4.33
2018-10-06T07:22:50.181Z,4.77
2018-10-06T07:25:17.916Z,4.10
2018-10-06T07:27:45.766Z,3.87
2018-10-06T07:30:13.503Z,3.30
2018-10-06T07:32:41.209Z,3.20
2018-10-06T07:35:09.174Z,3.63
2018-10-06T07:37:36.946Z,3.07
2018-10-06T07:40:04.734Z,2.70
2018-10-06T07:42:32.517Z,3.73
2018-10-06T07:45:00.322Z,3.10
2018-10-06T07:47:28.067Z,4.57
2018-10-06T07:49:55.870Z,3.00
2018-10-06T07:52:23.614Z,2.83
2018-10-06T07:54:51.394Z,3.27
2018-10-06T07:57:19.150Z,4.17
2018-10-06T07:59:46.881Z,3.10
2018-10-06T08:02:14.789Z,2.90
2018-10-06T08:04:42.578Z,4.40
2018-10-06T08:07:10.440Z,4.40
2018-10-06T08:09:38.140Z,3.10
2018-10-06T08:12:06.286Z,4.27
2018-10-06T08:14:34.081Z,2.77
2018-10-06T08:17:01.986Z,3.57
2018-10-06T08:19:29.747Z,2.90
2018-10-06T08:21:57.549Z,8.13
2018-10-06T08:24:25.309Z,3.50
2018-10-06T08:26:53.106Z,2.87
2018-10-06T08:29:20.870Z,3.37
2018-10-06T08:31:48.678Z,3.40
2018-10-06T08:34:16.373Z,3.67
2018-10-06T08:36:44.166Z,2.97
2018-10-06T08:39:11.945Z,4.37
2018-10-06T08:41:39.718Z,3.50
2018-10-06T08:44:07.427Z,2.70
2018-10-06T08:46:35.255Z,6.97
2018-10-06T08:49:03.364Z,5.03
2018-10-06T08:51:31.254Z,4.93
2018-10-06T08:53:59.300Z,3.07
2018-10-06T08:56:27.186Z,2.30
2018-10-06T08:58:54.856Z,2.47
2018-10-06T09:01:23.417Z,2.53
2018-10-06T09:03:51.201Z,3.27
2018-10-06T09:06:18.943Z,2.50
2018-10-06T09:08:46.624Z,3.10
2018-10-06T09:11:14.401Z,3.67
2018-10-06T09:13:42.233Z,3.07
2018-10-06T09:16:10.039Z,2.93
2018-10-06T09:18:37.866Z,2.47
2018-10-06T09:21:05.630Z,2.87
2018-10-06T09:23:33.370Z,3.70
2018-10-06T09:26:01.115Z,3.17
2018-10-06T09:28:28.943Z,2.83
2018-10-06T09:30:56.875Z,2.30
2018-10-06T09:33:24.697Z,2.60
2018-10-06T09:35:52.485Z,6.77
2018-10-06T09:38:20.287Z,2.57
2018-10-06T09:40:48.069Z,2.27
2018-10-06T09:43:15.828Z,2.97
2018-10-06T09:45:43.598Z,4.63
2018-10-06T09:48:11.360Z,2.00
2018-10-06T09:50:39.085Z,2.40
2018-10-06T09:53:06.846Z,4.27
2018-10-06T09:55:34.676Z,2.90
2018-10-06T09:58:02.474Z,2.57
2018-10-06T10:00:35.778Z,2.40
2018-10-06T10:03:09.399Z,3.25
2018-10-06T10:05:42.780Z,3.37
2018-10-06T10:08:10.594Z,2.57
2018-10-06T10:10:38.349Z,2.50
2018-10-06T10:13:06.587Z,1.83
2018-10-06T10:15:34.294Z,2.37
2018-10-06T10:18:02.101Z,2.50
2018-10-06T10:20:29.881Z,3.03
2018-10-06T10:22:57.592Z,2.10
2018-10-06T10:25:25.441Z,2.97
2018-10-06T10:27:53.259Z,3.07
2018-10-06T10:30:21.051Z,5.17
2018-10-06T10:32:48.827Z,2.30
2018-10-06T10:35:16.654Z,3.17
2018-10-06T10:37:44.402Z,2.70
2018-10-06T10:40:12.150Z,2.50
2018-10-06T10:42:39.893Z,1.80
2018-10-06T10:45:07.686Z,3.90
2018-10-06T10:47:35.453Z,2.73
2018-10-06T10:50:03.251Z,2.03
2018-10-06T10:52:30.979Z,1.60
2018-10-06T10:54:58.818Z,4.33
2018-10-06T10:57:26.632Z,2.47
2018-10-06T10:59:54.553Z,2.37
2018-10-06T11:02:22.346Z,3.07
2018-10-06T11:04:50.216Z,4.07
2018-10-06T11:07:17.913Z,2.13
2018-10-06T11:09:45.685Z,1.83
2018-10-06T11:12:13.515Z,4.00
2018-10-06T11:14:41.250Z,2.10
2018-10-06T11:17:09.038Z,3.20
2018-10-06T11:19:36.886Z,2.30
2018-10-06T11:22:04.614Z,1.90
2018-10-06T11:24:32.338Z,2.50
2018-10-06T11:27:00.107Z,1.90
2018-10-06T11:29:27.854Z,4.10
2018-10-06T11:31:55.633Z,1.97
2018-10-06T11:34:23.469Z,1.70
2018-10-06T11:36:51.241Z,3.23
2018-10-06T11:39:18.986Z,3.77
2018-10-06T11:41:46.778Z,3.17
2018-10-06T11:44:14.535Z,3.30
2018-10-06T11:46:42.301Z,2.90
2018-10-06T11:49:10.176Z,6.10
2018-10-06T11:51:37.885Z,3.73
2018-10-06T11:54:05.934Z,2.00
2018-10-06T11:56:33.766Z,2.43
2018-10-06T11:59:01.525Z,3.10
2018-10-06T12:01:29.286Z,2.70
2018-10-06T12:03:57.161Z,1.80
2018-10-06T12:06:24.962Z,2.30
2018-10-06T12:08:52.702Z,3.63
2018-10-06T12:11:20.493Z,2.57
2018-10-06T12:13:48.270Z,2.90
2018-10-06T12:16:16.119Z,2.53
2018-10-06T12:18:43.947Z,5.20
2018-10-06T12:21:11.727Z,2.33
2018-10-06T12:23:39.493Z,1.80
2018-10-06T12:26:07.353Z,2.47
2018-10-06T12:28:35.106Z,2.90
2018-10-06T12:31:02.838Z,3.00
2018-10-06T12:33:30.570Z,2.63
2018-10-06T12:35:58.326Z,3.43
2018-10-06T12:38:26.019Z,6.60
2018-10-06T12:40:53.849Z,2.27
2018-10-06T12:43:21.606Z,2.63
2018-10-06T12:45:49.313Z,5.47
2018-10-06T12:48:17.048Z,5.77
2018-10-06T12:50:44.797Z,3.03
2018-10-06T12:53:12.558Z,3.20
2018-10-06T12:55:40.358Z,2.40
2018-10-06T12:58:08.074Z,2.47
2018-10-06T13:00:35.848Z,3.17
2018-10-06T13:03:03.622Z,4.30
2018-10-06T13:05:31.354Z,2.60
2018-10-06T13:07:59.093Z,3.20
2018-10-06T13:10:26.856Z,2.67
2018-10-06T13:12:54.586Z,3.43
2018-10-06T13:15:22.307Z,2.73
2018-10-06T13:17:50.057Z,2.40
2018-10-06T13:20:17.818Z,2.13
2018-10-06T13:22:45.563Z,3.60
2018-10-06T13:25:13.382Z,3.03
2018-10-06T13:27:41.049Z,3.00
2018-10-06T13:30:08.723Z,2.20
2018-10-06T13:32:36.559Z,2.57
2018-10-06T13:35:04.365Z,2.43
2018-10-06T13:37:32.121Z,4.67
2018-10-06T13:39:59.930Z,4.33
2018-10-06T13:42:27.708Z,2.60
2018-10-06T13:44:55.427Z,2.23
2018-10-06T13:47:23.209Z,3.30
2018-10-06T13:49:51.035Z,2.40
2018-10-06T13:52:18.761Z,3.63
2018-10-06T13:54:46.586Z,2.43
2018-10-06T13:57:14.482Z,5.93
2018-10-06T13:59:42.250Z,3.90
2018-10-06T14:02:10.077Z,3.63
2018-10-06T14:04:37.822Z,3.17
2018-10-06T14:07:05.569Z,3.60
2018-10-06T14:09:33.359Z,3.30
2018-10-06T14:12:01.058Z,2.97
2018-10-06T14:14:28.802Z,4.33
2018-10-06T14:16:56.574Z,2.97
2018-10-06T14:19:24.434Z,3.70
2018-10-06T14:21:52.155Z,3.17
2018-10-06T14:24:19.885Z,2.37
2018-10-06T14:26:47.623Z,4.20
2018-10-06T14:29:15.443Z,4.63
2018-10-06T14:31:43.256Z,3.50
2018-10-06T14:34:10.997Z,3.87
2018-10-06T14:36:38.774Z,2.87
2018-10-06T14:39:08.285Z,2.77
2018-10-06T14:41:36.135Z,3.43
2018-10-06T14:44:03.891Z,2.20
2018-10-06T14:46:31.739Z,4.73
2018-10-06T14:48:59.708Z,3.97
2018-10-06T14:51:27.483Z,3.00
2018-10-06T14:53:55.294Z,5.33
2018-10-06T14:56:23.100Z,5.03
2018-10-06T14:58:50.830Z,2.70
2018-10-06T15:01:18.742Z,1.97
2018-10-06T15:03:46.479Z,1.97
2018-10-06T15:06:14.232Z,4.73
2018-10-06T15:08:41.989Z,3.47
2018-10-06T15:11:09.726Z,3.63
2018-10-06T15:13:37.486Z,3.90
2018-10-06T15:16:05.237Z,4.40
2018-10-06T15:18:32.954Z,5.40
2018-10-06T15:21:00.730Z,5.87
2018-10-06T15:23:28.501Z,4.73
2018-10-06T15:25:56.225Z,5.43
2018-10-06T15:28:23.980Z,3.80
2018-10-06T15:30:51.823Z,8.10
2018-10-06T15:33:19.508Z,4.93
2018-10-06T15:35:47.278Z,6.10
2018-10-06T15:38:15.087Z,6.30
2018-10-06T15:40:42.839Z,8.60
2018-10-06T15:43:10.616Z,4.80
2018-10-06T15:45:38.439Z,9.20
2018-10-06T15:48:06.214Z,5.10
2018-10-06T15:50:33.913Z,6.33
2018-10-06T15:53:01.756Z,7.20
2018-10-06T15:55:29.519Z,10.57
2018-10-06T15:57:57.278Z,16.17
2018-10-06T16:00:25.018Z,13.33
2018-10-06T16:02:52.774Z,11.53
2018-10-06T16:05:20.519Z,12.27
2018-10-06T16:07:48.370Z,12.90
2018-10-06T16:10:16.173Z,16.13
2018-10-06T16:12:43.987Z,15.50
2018-10-06T16:15:11.822Z,15.17
2018-10-06T16:17:39.537Z,12.27
2018-10-06T16:20:07.310Z,18.53
2018-10-06T16:22:35.108Z,11.57
2018-10-06T16:25:02.874Z,9.17
2018-10-06T16:27:30.679Z,14.83
2018-10-06T16:29:58.473Z,9.77
2018-10-06T16:32:26.229Z,8.97
2018-10-06T16:34:53.963Z,9.07
2018-10-06T16:37:22.221Z,10.63
2018-10-06T16:39:49.969Z,21.00
2018-10-06T16:42:17.760Z,18.63
2018-10-06T16:44:45.574Z,8.83
2018-10-06T16:47:13.432Z,8.80
2018-10-06T16:49:41.758Z,4.70
2018-10-06T16:52:09.919Z,6.87
2018-10-06T16:54:37.667Z,7.67
2018-10-06T16:57:05.475Z,9.17
2018-10-06T16:59:33.543Z,4.97
2018-10-06T17:02:03.820Z,8.40
2018-10-06T17:04:34.052Z,9.30
2018-10-06T17:07:04.736Z,5.87
2018-10-06T17:09:32.918Z,6.00
2018-10-06T17:12:01.020Z,7.07
2018-10-06T17:14:29.380Z,7.60
2018-10-06T17:16:57.938Z,13.67
2018-10-06T17:19:25.931Z,13.37
2018-10-06T17:21:54.949Z,9.27
2018-10-06T17:24:22.951Z,15.57
2018-10-06T17:26:51.127Z,12.83
2018-10-06T17:29:20.418Z,12.80
2018-10-06T17:31:48.469Z,13.73
2018-10-06T17:34:16.630Z,10.47
2018-10-06T17:36:44.449Z,8.87
2018-10-06T17:39:12.474Z,12.00
2018-10-06T17:41:40.733Z,8.03
2018-10-06T17:44:09.132Z,10.20
2018-10-06T17:46:40.630Z,10.83
2018-10-06T17:49:10.650Z,8.50
2018-10-06T17:51:40.748Z,7.00
2018-10-06T17:54:11.252Z,7.00
2018-10-06T17:56:42.389Z,5.47
2018-10-06T17:59:12.986Z,6.20
2018-10-06T18:01:42.632Z,5.83
2018-10-06T18:04:13.755Z,4.23
2018-10-06T18:06:44.085Z,7.90
2018-10-06T18:09:14.204Z,4.00
2018-10-06T18:11:45.151Z,7.57
2018-10-06T18:14:15.233Z,5.80
2018-10-06T18:16:45.758Z,7.17
2018-10-06T18:19:16.091Z,6.77
2018-10-06T18:21:46.861Z,6.43
2018-10-06T18:24:17.628Z,10.63
2018-10-06T18:26:48.309Z,8.90
2018-10-06T18:29:19.424Z,7.53
2018-10-06T18:31:48.531Z,8.10
2018-10-06T18:34:18.513Z,11.60
2018-10-06T18:36:47.170Z,10.37
2018-10-06T18:39:16.261Z,10.10
2018-10-06T18:41:45.186Z,7.27
2018-10-06T18:44:13.196Z,9.17
2018-10-06T18:46:41.355Z,8.97
2018-10-06T18:49:09.747Z,10.40
2018-10-06T18:51:38.442Z,11.00
2018-10-06T18:54:07.001Z,7.50
2018-10-06T18:56:37.008Z,8.20
2018-10-06T18:59:06.262Z,7.20
2018-10-06T19:01:35.743Z,7.67
2018-10-06T19:04:05.366Z,6.80
2018-10-06T19:06:34.997Z,8.30
2018-10-06T19:09:04.009Z,8.17
2018-10-06T19:11:32.437Z,7.40
2018-10-06T19:14:00.245Z,9.43
2018-10-06T19:16:28.366Z,8.87
2018-10-06T19:18:56.199Z,8.63
2018-10-06T19:21:25.349Z,10.73
2018-10-06T19:23:53.599Z,10.13
2018-10-06T19:26:21.848Z,10.50
2018-10-06T19:28:50.128Z,9.77
2018-10-06T19:31:18.140Z,12.40
2018-10-06T19:33:46.296Z,12.50
2018-10-06T19:36:14.061Z,12.40
2018-10-06T19:38:41.840Z,15.20
2018-10-06T19:41:09.681Z,15.70
2018-10-06T19:43:37.555Z,14.90
2018-10-06T19:46:05.348Z,11.07
2018-10-06T19:48:33.124Z,13.07
2018-10-06T19:51:01.406Z,12.57
2018-10-06T19:53:29.344Z,13.83
2018-10-06T19:55:57.144Z,14.43
2018-10-06T19:58:24.879Z,11.37
2018-10-06T20:00:52.690Z,12.93
2018-10-06T20:03:20.411Z,10.43
2018-10-06T20:05:48.578Z,10.50
2018-10-06T20:08:16.650Z,9.70
2018-10-06T20:10:44.369Z,9.17
2018-10-06T20:13:12.095Z,10.20
2018-10-06T20:15:39.838Z,8.83
2018-10-06T20:18:07.654Z,8.80
2018-10-06T20:20:35.401Z,14.10
2018-10-06T20:23:03.234Z,8.73
2018-10-06T20:25:31.005Z,10.30
2018-10-06T20:27:58.764Z,12.17
2018-10-06T20:30:27.017Z,10.33
2018-10-06T20:32:54.835Z,11.57
2018-10-06T20:35:22.647Z,10.30
2018-10-06T20:37:50.393Z,8.33
2018-10-06T20:40:18.310Z,7.77
2018-10-06T20:42:45.977Z,8.27
2018-10-06T20:45:13.745Z,7.20
2018-10-06T20:47:41.485Z,5.10
2018-10-06T20:50:09.189Z,8.57
2018-10-06T20:52:36.970Z,6.53
2018-10-06T20:55:04.723Z,6.60
2018-10-06T20:57:32.395Z,7.30
2018-10-06T21:00:00.218Z,7.40
2018-10-06T21:02:27.928Z,7.70
2018-10-06T21:04:55.721Z,5.90
2018-10-06T21:07:23.619Z,5.60
2018-10-06T21:09:51.354Z,5.27
2018-10-06T21:12:19.095Z,8.37
2018-10-06T21:14:46.893Z,6.57
2018-10-06T21:17:14.642Z,6.97
2018-10-06T21:19:42.430Z,6.27
2018-10-06T21:22:10.221Z,6.43
2018-10-06T21:24:37.963Z,5.33
2018-10-06T21:27:05.766Z,8.93
2018-10-06T21:29:33.713Z,6.20
2018-10-06T21:32:01.365Z,6.57
2018-10-06T21:34:29.139Z,6.40
2018-10-06T21:36:57.081Z,7.93
2018-10-06T21:39:24.820Z,9.67
2018-10-06T21:41:52.570Z,9.37
2018-10-06T21:44:20.305Z,8.33
2018-10-06T21:46:48.031Z,8.70
2018-10-06T21:49:15.765Z,10.30
2018-10-06T21:51:43.566Z,9.67
2018-10-06T21:54:11.338Z,9.53
2018-10-06T21:56:39.114Z,9.77
2018-10-06T21:59:06.911Z,12.63
2018-10-06T22:01:34.945Z,10.20
2018-10-06T22:04:02.794Z,6.70
2018-10-06T22:06:30.621Z,8.00
2018-10-06T22:08:58.342Z,8.63
2018-10-06T22:11:26.133Z,5.00
2018-10-06T22:13:53.882Z,7.07
2018-10-06T22:16:21.906Z,5.07
2018-10-06T22:18:49.674Z,5.20
2018-10-06T22:21:17.503Z,4.30
2018-10-06T22:23:45.289Z,6.00
2018-10-06T22:26:13.018Z,4.13
2018-10-06T22:28:40.787Z,5.73
2018-10-06T22:31:09.322Z,3.30
2018-10-06T22:33:37.001Z,4.10
2018-10-06T22:36:04.801Z,5.57
2018-10-06T22:38:32.602Z,3.63
2018-10-06T22:41:00.296Z,4.67
2018-10-06T22:43:28.081Z,3.63
2018-10-06T22:45:55.811Z,5.50
2018-10-06T22:48:23.692Z,3.80
2018-10-06T22:50:51.389Z,4.40
2018-10-06T22:53:19.078Z,4.90
2018-10-06T22:55:46.754Z,4.67
2018-10-06T22:58:14.526Z,4.87
2018-10-06T23:00:42.186Z,4.63
2018-10-06T23:03:09.993Z,6.90
2018-10-06T23:05:37.706Z,5.07
2018-10-06T23:08:05.449Z,8.17
2018-10-06T23:10:33.206Z,3.20
2018-10-06T23:13:00.979Z,4.63
2018-10-06T23:15:28.720Z,5.13
2018-10-06T23:17:56.489Z,3.87
2018-10-06T23:20:24.291Z,4.87
2018-10-06T23:22:52.075Z,4.57
2018-10-06T23:25:19.838Z,3.93
2018-10-06T23:27:47.605Z,3.03
2018-10-06T23:30:15.285Z,5.03
2018-10-06T23:32:43.055Z,4.33
2018-10-06T23:35:10.865Z,3.50
2018-10-06T23:37:38.627Z,5.57
2018-10-06T23:40:06.643Z,4.20
2018-10-06T23:42:34.475Z,2.90
2018-10-06T23:45:02.296Z,3.33
2018-10-06T23:47:30.050Z,4.23
2018-10-06T23:49:57.882Z,9.47
2018-10-06T23:52:25.623Z,6.83
2018-10-06T23:54:53.313Z,3.47
2018-10-06T23:57:21.061Z,6.07
2018-10-06T23:59:48.786Z,3.93
